createdAt,value
2018-05-26T00:00:29.008Z,101998.86
2018-05-26T00:03:05.756Z,101993.66
2018-05-26T00:05:33.447Z,101995.88
2018-05-26T00:08:01.061Z,101995.06
2018-05-26T00:10:28.603Z,101985.90
2018-05-26T00:12:56.188Z,101991.12
2018-05-26T00:15:23.931Z,101992.91
2018-05-26T00:17:52.003Z,101988.98
2018-05-26T00:20:20.587Z,101989.44
2018-05-26T00:22:54.579Z,101989.92
2018-05-26T00:25:22.221Z,101986.47
2018-05-26T00:27:49.968Z,101987.81
2018-05-26T00:30:17.527Z,101991.75
2018-05-26T00:32:45.208Z,101984.75
2018-05-26T00:35:17.168Z,101995.23
2018-05-26T00:37:45.610Z,101993.06
2018-05-26T00:40:13.367Z,101996.14
2018-05-26T00:42:40.889Z,101992.70
2018-05-26T00:45:08.437Z,101994.38
2018-05-26T00:47:35.971Z,101989.58
2018-05-26T00:50:03.621Z,101989.19
2018-05-26T00:52:31.337Z,101991.84
2018-05-26T00:54:59.520Z,101995.83
2018-05-26T00:57:27.277Z,101992.37
2018-05-26T00:59:54.827Z,101999.00
2018-05-26T01:02:22.388Z,101995.52
2018-05-26T01:04:49.936Z,101986.02
2018-05-26T01:07:17.547Z,101987.90
2018-05-26T01:09:45.516Z,101991.04
2018-05-26T01:12:13.160Z,101989.78
2018-05-26T01:14:41.008Z,101989.87
2018-05-26T01:17:08.544Z,101988.25
2018-05-26T01:19:36.148Z,101989.24
2018-05-26T01:22:03.668Z,101987.13
2018-05-26T01:24:31.230Z,101989.02
2018-05-26T01:26:58.838Z,101981.31
2018-05-26T01:29:26.502Z,101978.77
2018-05-26T01:31:54.193Z,101979.28
2018-05-26T01:34:21.775Z,101979.40
2018-05-26T01:36:49.367Z,101977.38
2018-05-26T01:39:16.923Z,101979.22
2018-05-26T01:41:44.484Z,101978.39
2018-05-26T01:44:12.134Z,101974.14
2018-05-26T01:46:39.933Z,101976.85
2018-05-26T01:49:07.907Z,101980.90
2018-05-26T01:51:35.443Z,101977.12
2018-05-26T01:54:02.981Z,101977.24
2018-05-26T01:56:30.527Z,101975.21
2018-05-26T01:58:58.423Z,101979.71
2018-05-26T02:01:26.076Z,101984.67
2018-05-26T02:03:53.770Z,101984.78
2018-05-26T02:06:21.429Z,101995.91
2018-05-26T02:08:48.953Z,101985.61
2018-05-26T02:11:16.485Z,101988.86
2018-05-26T02:13:44.005Z,101990.70
2018-05-26T02:16:11.783Z,101991.31
2018-05-26T02:18:39.774Z,101991.42
2018-05-26T02:21:08.350Z,101991.20
2018-05-26T02:23:36.075Z,101988.72
2018-05-26T02:26:03.630Z,101996.31
2018-05-26T02:28:31.170Z,101992.11
2018-05-26T02:30:59.555Z,101997.94
2018-05-26T02:33:27.196Z,101991.59
2018-05-26T02:35:54.853Z,101993.47
2018-05-26T02:38:22.477Z,101987.05
2018-05-26T02:40:50.049Z,101988.03
2018-05-26T02:43:17.858Z,101985.91
2018-05-26T02:45:45.360Z,101992.11
2018-05-26T02:48:12.878Z,101985.23
2018-05-26T02:50:40.567Z,101986.33
2018-05-26T02:53:09.267Z,101987.34
2018-05-26T02:55:37.513Z,101979.61
2018-05-26T02:58:06.011Z,101985.36
2018-05-26T03:00:33.688Z,101983.74
2018-05-26T03:03:01.231Z,101976.36
2018-05-26T03:05:34.483Z,101978.23
2018-05-26T03:08:07.577Z,101973.11
2018-05-26T03:10:40.781Z,101968.41
2018-05-26T03:13:16.064Z,101961.08
2018-05-26T03:15:54.769Z,101964.17
2018-05-26T03:18:22.339Z,101976.02
2018-05-26T03:20:49.926Z,101969.92
2018-05-26T03:23:17.454Z,101967.33
2018-05-26T03:25:45.012Z,101969.52
2018-05-26T03:28:12.640Z,101967.80
2018-05-26T03:30:40.274Z,101970.42
2018-05-26T03:33:07.960Z,101973.47
2018-05-26T03:35:35.508Z,101970.42
2018-05-26T03:38:03.040Z,101980.44
2018-05-26T03:40:30.568Z,101985.69
2018-05-26T03:42:58.131Z,101981.30
2018-05-26T03:45:27.572Z,101979.52
2018-05-26T03:47:55.248Z,101982.89
2018-05-26T03:50:23.000Z,101981.50
2018-05-26T03:52:50.663Z,101981.38
2018-05-26T03:55:38.790Z,101975.17
2018-05-26T03:58:18.115Z,101983.84
2018-05-26T04:00:45.731Z,101988.12
2018-05-26T04:03:36.642Z,101991.98
2018-05-26T04:06:04.281Z,101989.33
2018-05-26T04:08:32.078Z,101982.33
2018-05-26T04:10:59.645Z,101984.07
2018-05-26T04:13:27.132Z,101986.23
2018-05-26T04:15:54.694Z,101984.05
2018-05-26T04:18:22.414Z,101979.17
2018-05-26T04:20:50.100Z,101984.39
2018-05-26T04:23:17.741Z,101984.83
2018-05-26T04:25:46.952Z,101984.39
2018-05-26T04:28:14.606Z,101986.11
2018-05-26T04:30:42.132Z,101983.48
2018-05-26T04:33:09.723Z,101985.17
2018-05-26T04:35:37.368Z,101982.98
2018-05-26T04:38:06.852Z,101989.50
2018-05-26T04:40:36.280Z,101991.25
2018-05-26T04:43:05.067Z,101985.06
2018-05-26T04:45:32.611Z,101985.02
2018-05-26T04:48:00.187Z,101982.75
2018-05-26T04:50:27.745Z,101983.07
2018-05-26T04:52:55.405Z,101987.75
2018-05-26T04:55:23.844Z,101981.48
2018-05-26T04:57:51.560Z,101986.53
2018-05-26T05:00:22.033Z,101990.31
2018-05-26T05:02:49.616Z,101982.27
2018-05-26T05:05:17.188Z,101983.87
2018-05-26T05:07:44.730Z,101977.18
2018-05-26T05:10:12.491Z,101980.02
2018-05-26T05:12:40.294Z,101985.08
2018-05-26T05:15:08.671Z,101989.25
2018-05-26T05:17:36.726Z,101995.65
2018-05-26T05:20:04.300Z,101997.17
2018-05-26T05:22:31.875Z,101999.21
2018-05-26T05:24:59.455Z,102001.19
2018-05-26T05:27:34.840Z,102003.66
2018-05-26T05:30:09.212Z,102006.96
2018-05-26T05:32:41.246Z,102000.25
2018-05-26T05:35:09.096Z,101998.80
2018-05-26T05:37:36.843Z,101993.35
2018-05-26T05:40:04.376Z,101989.25
2018-05-26T05:42:31.904Z,101993.83
2018-05-26T05:45:00.757Z,101996.63
2018-05-26T05:47:29.276Z,101992.86
2018-05-26T05:49:57.138Z,101996.12
2018-05-26T05:52:28.279Z,101996.75
2018-05-26T05:54:55.882Z,101993.95
2018-05-26T05:57:23.433Z,101992.09
2018-05-26T05:59:50.979Z,101987.67
2018-05-26T06:02:20.583Z,101991.98
2018-05-26T06:04:49.685Z,101990.61
2018-05-26T06:07:18.159Z,101994.86
2018-05-26T06:09:46.962Z,101986.02
2018-05-26T06:12:14.634Z,101987.64
2018-05-26T06:14:42.176Z,101987.07
2018-05-26T06:17:09.735Z,101989.98
2018-05-26T06:19:37.372Z,101990.27
2018-05-26T06:22:05.875Z,101991.38
2018-05-26T06:24:34.264Z,101995.56
2018-05-26T06:27:01.972Z,101997.05
2018-05-26T06:29:29.567Z,102003.25
2018-05-26T06:31:57.102Z,101993.77
2018-05-26T06:34:24.624Z,101997.35
2018-05-26T06:36:53.235Z,101996.91
2018-05-26T06:39:21.899Z,101994.25
2018-05-26T06:41:51.168Z,101994.72
2018-05-26T06:44:19.437Z,101993.39
2018-05-26T06:46:46.989Z,101991.25
2018-05-26T06:49:14.571Z,101994.46
2018-05-26T06:51:42.067Z,101990.17
2018-05-26T06:54:09.820Z,101990.69
2018-05-26T06:56:41.185Z,101986.30
2018-05-26T06:59:11.917Z,101982.73
2018-05-26T07:01:40.649Z,101983.30
2018-05-26T07:04:08.199Z,101987.14
2018-05-26T07:06:35.718Z,101976.49
2018-05-26T07:09:03.322Z,101978.01
2018-05-26T07:11:30.956Z,101979.39
2018-05-26T07:13:58.583Z,101973.22
2018-05-26T07:16:26.265Z,101966.04
2018-05-26T07:18:54.780Z,101970.21
2018-05-26T07:21:22.356Z,101967.27
2018-05-26T07:23:51.017Z,101969.19
2018-05-26T07:29:11.820Z,101973.69
2018-05-26T08:14:22.567Z,101970.20
2018-05-26T08:16:50.126Z,101963.50
2018-05-26T08:19:17.631Z,101962.34
2018-05-26T08:21:56.834Z,101951.63
2018-05-26T08:24:30.897Z,101956.02
2018-05-26T08:27:10.681Z,101959.20
2018-05-26T08:29:42.056Z,101963.44
2018-05-26T08:32:09.599Z,101967.28
2018-05-26T08:34:37.647Z,101970.20
2018-05-26T08:37:05.162Z,101968.30
2018-05-26T08:39:34.137Z,101970.62
2018-05-26T08:42:02.625Z,101970.47
2018-05-26T08:44:33.559Z,101974.55
2018-05-26T08:47:01.176Z,101979.02
2018-05-26T08:49:28.726Z,101979.13
2018-05-26T08:51:56.287Z,101978.01
2018-05-26T08:54:23.838Z,101980.22
2018-05-26T08:56:54.088Z,101978.44
2018-05-26T08:59:21.663Z,101981.78
2018-05-26T09:01:49.325Z,101980.26
2018-05-26T09:04:17.781Z,101977.15
2018-05-26T09:06:45.327Z,101979.59
2018-05-26T09:09:12.868Z,101983.33
2018-05-26T09:11:41.438Z,101982.58
2018-05-26T09:14:09.856Z,101985.30
2018-05-26T09:17:32.580Z,101988.91
2018-05-26T09:20:15.069Z,101988.92
2018-05-26T09:22:42.624Z,101986.41
2018-05-26T09:25:10.298Z,101977.40
2018-05-26T09:27:37.728Z,101982.75
2018-05-26T09:30:05.406Z,101984.35
2018-05-26T09:32:33.109Z,101981.87
2018-05-26T09:35:00.755Z,101975.64
2018-05-26T09:40:01.881Z,101978.36
2018-05-26T09:42:29.454Z,101983.62
2018-05-26T09:44:57.032Z,101975.13
2018-05-26T09:47:24.536Z,101984.60
2018-05-26T09:49:52.236Z,101982.27
2018-05-26T09:52:20.987Z,101982.91
2018-05-26T09:54:49.914Z,101980.22
2018-05-26T09:57:25.767Z,101981.84
2018-05-26T09:59:53.359Z,101982.27
2018-05-26T10:02:20.911Z,101984.02
2018-05-26T10:04:48.617Z,101991.78
2018-05-26T10:07:16.451Z,101984.67
2018-05-26T10:09:45.629Z,101983.90
2018-05-26T10:12:13.411Z,101978.80
2018-05-26T10:14:41.007Z,101972.55
2018-05-26T10:17:08.611Z,101974.70
2018-05-26T10:19:36.156Z,101976.98
2018-05-26T10:22:03.954Z,101973.09
2018-05-26T10:24:32.895Z,101974.48
2018-05-26T10:27:00.574Z,101979.80
2018-05-26T10:29:28.281Z,101980.97
2018-05-26T10:31:56.724Z,101982.13
2018-05-26T10:34:24.381Z,101981.20
2018-05-26T10:36:51.870Z,101979.30
2018-05-26T10:39:19.358Z,101983.50
2018-05-26T10:41:49.883Z,101980.81
2018-05-26T10:44:17.528Z,101975.58
2018-05-26T10:51:17.156Z,101978.58
2018-05-26T10:53:49.053Z,101978.86
2018-05-26T10:56:19.379Z,101989.92
2018-05-26T11:01:22.877Z,101988.28
2018-05-26T11:03:51.343Z,101987.37
2018-05-26T11:06:18.868Z,101986.79
2018-05-26T11:08:47.503Z,101984.53
2018-05-26T11:11:15.795Z,101985.09
2018-05-26T11:13:43.434Z,101986.45
2018-05-26T11:16:13.427Z,101984.56
2018-05-26T11:18:45.477Z,101976.42
2018-05-26T11:21:13.109Z,101979.66
2018-05-26T11:26:51.714Z,101993.05
2018-05-26T11:29:26.331Z,101977.31
2018-05-26T11:41:04.641Z,101990.09
2018-05-26T11:43:34.542Z,102002.03
2018-05-26T12:00:15.268Z,101957.00
2018-05-26T12:02:44.091Z,101956.33
2018-05-26T12:14:45.273Z,101934.89
2018-05-26T12:17:18.910Z,101930.86
2018-05-26T12:20:07.812Z,101931.70
2018-05-26T13:23:54.322Z,101829.63
2018-05-26T13:26:25.615Z,101816.92
2018-05-26T13:28:59.302Z,101814.84
2018-05-26T13:40:36.150Z,101815.38
2018-05-26T13:45:42.830Z,101806.98
2018-05-26T13:57:19.901Z,101798.84
2018-05-26T13:59:48.292Z,101806.33
2018-05-26T14:02:16.495Z,101797.84
2018-05-26T14:14:11.193Z,101793.63
2018-05-26T14:16:40.678Z,101787.31
2018-05-26T14:19:09.768Z,101787.40
2018-05-26T14:27:38.422Z,101788.27
2018-05-26T14:30:09.048Z,101782.59
2018-05-26T14:32:36.532Z,101781.40
2018-05-26T14:35:04.055Z,101791.97
2018-05-26T14:37:31.565Z,101787.13
2018-05-26T14:39:59.391Z,101793.69
2018-05-26T14:42:28.620Z,101789.95
2018-05-26T14:44:56.379Z,101791.09
2018-05-26T14:47:24.482Z,101782.52
2018-05-26T14:49:52.092Z,101786.59
2018-05-26T14:52:19.563Z,101777.88
2018-05-26T14:54:47.072Z,101772.23
2018-05-26T14:57:21.225Z,101759.44
2018-05-26T14:59:50.422Z,101753.41
2018-05-26T15:02:21.100Z,101742.67
2018-05-26T15:04:49.608Z,101736.90
2018-05-26T15:07:18.322Z,101730.72
2018-05-26T15:09:45.805Z,101723.56
2018-05-26T15:12:14.246Z,101712.73
2018-05-26T15:14:42.603Z,101708.91
2018-05-26T15:23:15.798Z,101695.82
2018-05-26T15:25:46.858Z,101689.41
2018-05-26T15:28:19.597Z,101690.89
2018-05-26T15:30:51.487Z,101685.91
2018-05-26T15:42:31.937Z,101684.77
2018-05-26T15:45:01.184Z,101684.78
2018-05-26T15:47:44.532Z,101678.12
2018-05-26T15:58:57.073Z,101669.81
2018-05-26T16:01:27.000Z,101657.58
2018-05-26T16:03:56.236Z,101660.72
2018-05-26T16:09:08.789Z,101654.59
2018-05-26T16:11:37.597Z,101644.75
2018-05-26T16:14:06.180Z,101648.22
2018-05-26T16:16:35.756Z,101639.01
2018-05-26T16:19:13.456Z,101642.33
2018-05-26T16:21:41.151Z,101628.45
2018-05-26T16:24:18.275Z,101632.13
2018-05-26T16:26:46.897Z,101632.48
2018-05-26T16:29:17.197Z,101626.36
2018-05-26T16:31:48.429Z,101621.94
2018-05-26T16:34:15.977Z,101623.42
2018-05-26T16:36:43.712Z,101619.50
2018-05-26T16:39:11.560Z,101615.70
2018-05-26T16:41:41.622Z,101618.52
2018-05-26T16:50:14.372Z,101621.24
2018-05-26T16:52:42.096Z,101615.16
2018-05-26T16:55:09.920Z,101612.04
2018-05-26T17:07:05.273Z,101592.71
2018-05-26T17:09:33.057Z,101581.69
2018-05-26T17:12:00.635Z,101576.78
2018-05-26T17:23:30.304Z,101562.16
2018-05-26T17:25:57.963Z,101558.00
2018-05-26T17:28:26.077Z,101558.42
2018-05-26T17:30:57.171Z,101556.50
2018-05-26T17:42:34.108Z,101530.22
2018-05-26T17:45:01.815Z,101526.23
2018-05-26T17:47:29.860Z,101527.25
2018-05-26T17:58:28.105Z,101499.20
2018-05-26T18:00:55.691Z,101501.66
2018-05-26T18:03:24.096Z,101498.77
2018-05-26T18:05:51.727Z,101493.39
2018-05-26T18:16:49.649Z,101483.28
2018-05-26T18:19:18.072Z,101480.52
2018-05-26T18:21:46.376Z,101473.39
2018-05-26T18:33:13.222Z,101467.45
2018-05-26T18:35:40.807Z,101465.98
2018-05-26T18:38:08.471Z,101463.25
2018-05-26T18:49:42.287Z,101443.06
2018-05-26T18:52:10.125Z,101439.95
2018-05-26T18:54:38.476Z,101439.88
2018-05-26T18:57:06.105Z,101426.33
2018-05-26T19:08:44.172Z,101436.47
2018-05-26T19:11:12.033Z,101424.05
2018-05-26T19:25:49.463Z,101474.70
2018-05-26T19:28:17.375Z,101457.32
2018-05-26T19:30:45.204Z,101457.64
2018-05-26T19:42:20.954Z,101449.88
2018-05-26T19:44:48.611Z,101445.14
2018-05-26T19:47:16.236Z,101441.34
2018-05-26T19:49:45.886Z,101443.59
2018-05-26T20:01:22.186Z,101450.70
2018-05-26T20:03:49.826Z,101460.78
2018-05-26T20:06:17.408Z,101468.66
2018-05-26T20:17:53.920Z,101481.09
2018-05-26T20:20:21.795Z,101474.82
2018-05-26T20:23:11.423Z,101477.33
2018-05-26T20:34:47.936Z,101491.13
2018-05-26T20:37:15.580Z,101494.50
2018-05-26T20:39:43.364Z,101469.95
2018-05-26T20:51:19.190Z,101482.89
2018-05-26T20:53:46.826Z,101482.66
2018-05-26T20:56:14.391Z,101465.45
2018-05-26T21:07:16.825Z,101478.19
2018-05-26T21:09:44.390Z,101498.66
2018-05-26T21:12:11.918Z,101493.78
2018-05-26T21:14:39.463Z,101518.46
2018-05-26T21:17:07.136Z,101535.26
2018-05-26T21:19:34.836Z,101508.19
2018-05-26T21:24:52.158Z,101512.36
2018-05-26T21:27:20.031Z,101508.94
2018-05-26T21:29:47.578Z,101506.27
2018-05-26T21:32:15.464Z,101508.58
2018-05-26T21:34:43.109Z,101525.88
2018-05-26T21:37:13.481Z,101523.17
2018-05-26T21:39:42.107Z,101530.70
2018-05-26T21:42:10.052Z,101518.30
2018-05-26T21:44:37.675Z,101515.59
2018-05-26T21:47:05.267Z,101512.31
2018-05-26T21:49:33.711Z,101501.97
2018-05-26T21:52:06.455Z,101510.52
2018-05-26T22:00:02.473Z,101481.29
2018-05-26T22:02:31.080Z,101482.28
2018-05-26T22:04:58.623Z,101475.38
2018-05-26T22:07:26.363Z,101474.70
2018-05-26T22:18:02.267Z,101455.08
2018-05-26T22:20:29.865Z,101455.67
2018-05-26T22:22:57.622Z,101456.32
2018-05-26T22:25:32.634Z,101454.20
2018-05-26T22:28:04.452Z,101446.40
2018-05-26T22:36:04.685Z,101431.84
2018-05-26T22:41:04.875Z,101418.91
2018-05-26T22:43:41.594Z,101424.31
2018-05-26T22:54:01.238Z,101396.72
2018-05-26T22:56:28.872Z,101382.37
2018-05-26T22:58:56.459Z,101388.22
2018-05-26T23:01:28.819Z,101387.92
2018-05-26T23:04:01.541Z,101390.31
2018-05-26T23:06:34.231Z,101383.41
2018-05-26T23:09:04.655Z,101377.45
2018-05-26T23:11:32.223Z,101387.73
2018-05-26T23:13:59.788Z,101391.45
2018-05-26T23:16:27.581Z,101400.02
2018-05-26T23:18:57.427Z,101395.75
2018-05-26T23:21:26.141Z,101411.30
2018-05-26T23:24:04.836Z,101404.79
2018-05-26T23:29:07.991Z,101424.34
2018-05-26T23:31:35.444Z,101432.80
2018-05-26T23:34:02.988Z,101438.09
2018-05-26T23:36:32.458Z,101435.92
2018-05-26T23:39:04.897Z,101438.98
2018-05-26T23:41:37.446Z,101424.76
2018-05-26T23:44:06.648Z,101417.56
2018-05-26T23:46:37.412Z,101405.21
2018-05-26T23:49:04.995Z,101390.05
2018-05-26T23:51:32.551Z,101385.09
2018-05-26T23:54:02.612Z,101375.77
2018-05-26T23:56:30.271Z,101375.42
2018-05-26T23:58:58.044Z,101370.72
